Time;durP1;ratioP1;P1;durP2;ratioP2;P2;SDS_P1;SDS_P2;PMS_P1;PMS_P2;Temp;Humidity;BMP_temperature;BMP_pressure;BME280_temperature;BME280_humidity;BME280_pressure;Samples;Min_cycle;Max_cycle;Signal;HPM_P1;HPM_P2
2023/02/08 00:00:07;;;;;;;22.40;20.13;;;0.00;99.90;;;;;;5061357;28;20481;-71
2023/02/08 00:02:33;;;;;;;22.10;19.83;;;0.00;99.90;;;;;;5060439;28;20473;-71
2023/02/08 00:05:01;;;;;;;25.57;21.23;;;-0.10;99.90;;;;;;5053499;28;20486;-70
2023/02/08 00:07:28;;;;;;;22.60;20.50;;;0.00;99.90;;;;;;5054952;28;20536;-70
2023/02/08 00:09:55;;;;;;;23.77;21.37;;;-0.10;99.90;;;;;;5048408;28;20809;-71
2023/02/08 00:12:21;;;;;;;23.30;21.30;;;-0.10;99.90;;;;;;5065275;28;20796;-71
2023/02/08 00:14:48;;;;;;;22.73;20.43;;;-0.20;99.90;;;;;;5058739;28;20852;-68
2023/02/08 00:17:16;;;;;;;23.83;21.93;;;-0.20;99.90;;;;;;5052856;28;20850;-68
2023/02/08 00:19:43;;;;;;;22.90;20.80;;;-0.20;99.90;;;;;;5058898;28;20556;-68
2023/02/08 00:22:10;;;;;;;23.03;20.93;;;-0.30;99.90;;;;;;5051565;28;20462;-68
2023/02/08 00:24:36;;;;;;;25.03;21.60;;;-0.30;99.90;;;;;;5063031;28;20485;-69
2023/02/08 00:27:04;;;;;;;23.10;21.10;;;-0.30;99.90;;;;;;5060106;28;20477;-68
2023/02/08 00:29:31;;;;;;;23.73;21.60;;;-0.40;99.90;;;;;;5060349;28;20486;-69
2023/02/08 00:31:58;;;;;;;22.53;20.40;;;-0.40;99.90;;;;;;5051931;28;20493;-69
2023/02/08 00:34:26;;;;;;;24.07;21.57;;;-0.50;99.90;;;;;;5058755;28;20462;-69
2023/02/08 00:36:53;;;;;;;23.33;21.00;;;-0.50;99.90;;;;;;5051660;28;20853;-69
2023/02/08 00:39:20;;;;;;;22.90;20.90;;;-0.60;99.90;;;;;;5061665;28;20459;-69
2023/02/08 00:41:46;;;;;;;22.80;20.50;;;-0.60;99.90;;;;;;5062135;28;20930;-70
2023/02/08 00:44:13;;;;;;;22.00;20.13;;;-0.70;99.90;;;;;;5060080;28;20458;-69
2023/02/08 00:46:40;;;;;;;23.57;21.37;;;-0.70;99.90;;;;;;5051372;28;20944;-69
2023/02/08 00:49:07;;;;;;;23.97;22.00;;;-0.70;99.90;;;;;;5059353;28;20510;-69
2023/02/08 00:51:35;;;;;;;23.20;21.00;;;-0.70;99.90;;;;;;5059215;28;20470;-69
2023/02/08 00:54:02;;;;;;;22.67;20.67;;;-0.70;99.90;;;;;;5058199;28;20471;-69
2023/02/08 00:56:29;;;;;;;24.40;22.17;;;-0.70;99.90;;;;;;5055119;28;20463;-69
2023/02/08 00:58:56;;;;;;;23.03;20.67;;;-0.80;99.90;;;;;;5057668;28;20481;-69
2023/02/08 01:01:23;;;;;;;23.33;21.13;;;-0.80;99.90;;;;;;5053911;28;20490;-69
2023/02/08 01:03:50;;;;;;;22.90;20.47;;;-0.80;99.90;;;;;;5050777;28;20845;-69
2023/02/08 01:06:18;;;;;;;23.23;21.13;;;-0.90;99.90;;;;;;5050081;28;21542;-69
2023/02/08 01:08:46;;;;;;;23.63;21.50;;;-0.90;99.90;;;;;;5059565;28;20494;-69
2023/02/08 01:11:15;;;;;;;24.00;21.50;;;-0.90;99.90;;;;;;5053821;28;20953;-69
2023/02/08 01:13:42;;;;;;;24.20;21.70;;;-1.00;99.90;;;;;;5058683;28;20494;-69
2023/02/08 01:16:12;;;;;;;24.17;22.00;;;-1.00;99.90;;;;;;5060326;28;20471;-69
2023/02/08 01:18:39;;;;;;;22.80;20.70;;;-1.00;99.90;;;;;;5055531;28;20901;-69
2023/02/08 01:21:08;;;;;;;22.30;20.10;;;-1.00;99.90;;;;;;5054951;28;20496;-69
2023/02/08 01:23:35;;;;;;;46.73;22.60;;;-1.00;99.90;;;;;;5062424;28;20458;-69
2023/02/08 01:26:04;;;;;;;24.63;22.10;;;-1.10;99.90;;;;;;5058682;28;20860;-69
2023/02/08 01:28:31;;;;;;;23.87;21.43;;;-1.10;99.90;;;;;;5057020;28;20482;-69
2023/02/08 01:30:58;;;;;;;22.40;20.30;;;-1.10;99.90;;;;;;5055514;28;20477;-70
2023/02/08 01:33:25;;;;;;;24.73;22.33;;;-1.10;99.90;;;;;;5059473;28;20473;-69
2023/02/08 01:35:54;;;;;;;24.00;21.60;;;-1.20;99.90;;;;;;5054228;28;20477;-70
2023/02/08 01:38:21;;;;;;;23.97;21.67;;;-1.20;99.90;;;;;;5053144;28;20464;-70
2023/02/08 01:40:48;;;;;;;24.30;21.83;;;-1.30;99.90;;;;;;5055671;28;20462;-69
2023/02/08 01:43:23;;;;;;;23.80;21.20;;;-1.30;99.90;;;;;;5055196;28;20463;-70
2023/02/08 01:45:51;;;;;;;23.70;21.20;;;-1.30;99.90;;;;;;5049930;28;20463;-69
2023/02/08 01:48:23;;;;;;;24.73;22.13;;;-1.30;99.90;;;;;;5053625;28;20466;-69
2023/02/08 01:50:54;;;;;;;24.23;21.93;;;-1.30;99.90;;;;;;5050739;28;20471;-69
2023/02/08 01:53:23;;;;;;;24.30;22.10;;;-1.30;99.90;;;;;;5052779;28;20511;-69
2023/02/08 01:55:55;;;;;;;24.57;22.17;;;-1.30;99.90;;;;;;5053669;28;20485;-69
2023/02/08 01:58:24;;;;;;;24.23;22.03;;;-1.40;99.90;;;;;;5048445;28;20474;-69
2023/02/08 02:00:51;;;;;;;24.87;22.23;;;-1.40;99.90;;;;;;5057707;28;20482;-69
2023/02/08 02:03:19;;;;;;;25.07;22.67;;;-1.40;99.90;;;;;;5053146;28;20533;-69
2023/02/08 02:05:49;;;;;;;24.87;22.27;;;-1.40;99.90;;;;;;5057582;28;20878;-70
2023/02/08 02:08:16;;;;;;;24.87;22.47;;;-1.40;99.90;;;;;;5050820;28;20463;-69
2023/02/08 02:10:43;;;;;;;25.57;22.97;;;-1.40;99.90;;;;;;5046594;28;20475;-70
2023/02/08 02:13:13;;;;;;;26.27;23.50;;;-1.30;99.90;;;;;;5055132;28;20460;-70
2023/02/08 02:15:42;;;;;;;24.80;22.60;;;-1.30;99.90;;;;;;5055860;28;21236;-69
2023/02/08 02:18:11;;;;;;;26.57;23.87;;;-1.30;99.90;;;;;;5059224;28;20474;-69
2023/02/08 02:21:06;;;;;;;27.27;23.90;;;-1.30;99.90;;;;;;5052461;28;20462;-69
2023/02/08 02:24:27;;;;;;;25.53;23.17;;;-1.30;99.90;;;;;;5056728;28;20862;-68
2023/02/08 02:27:18;;;;;;;25.97;23.33;;;-1.30;99.90;;;;;;4944324;28;20468;-69
2023/02/08 02:30:27;;;;;;;33.00;23.87;;;-1.30;99.90;;;;;;5049550;28;20487;-69
2023/02/08 02:33:25;;;;;;;24.60;22.43;;;-1.30;99.90;;;;;;5062951;28;20999;-69
2023/02/08 02:36:00;;;;;;;24.40;21.90;;;-1.30;99.90;;;;;;5019140;28;20468;-69
2023/02/08 02:38:40;;;;;;;30.00;23.23;;;-1.30;99.90;;;;;;5054151;28;20466;-69
2023/02/08 02:43:40;;;;;;;28.20;23.33;;;-1.30;99.90;;;;;;5050515;28;20852;-69
2023/02/08 02:44:13;;;;;;;25.63;23.10;;;-1.30;99.90;;;;;;5055994;28;20467;-69
2023/02/08 02:46:45;;;;;;;25.97;23.43;;;-1.40;99.90;;;;;;5049704;28;20474;-69
2023/02/08 02:49:19;;;;;;;25.13;22.63;;;-1.40;99.90;;;;;;5060048;28;20855;-69
2023/02/08 02:51:49;;;;;;;26.00;23.40;;;-1.40;99.90;;;;;;5060067;28;20514;-69
2023/02/08 02:54:20;;;;;;;25.87;22.70;;;-1.40;99.90;;;;;;5054932;28;20473;-69
2023/02/08 02:56:50;;;;;;;28.93;21.87;;;-1.40;99.90;;;;;;5047857;28;20463;-70
2023/02/08 02:59:19;;;;;;;24.87;22.43;;;-1.30;99.90;;;;;;5049223;28;20709;-69
2023/02/08 03:01:47;;;;;;;25.30;22.30;;;-1.30;99.90;;;;;;5046786;28;21086;-69
2023/02/08 03:04:18;;;;;;;24.87;22.37;;;-1.30;99.90;;;;;;5064743;28;20907;-69
2023/02/08 03:06:57;;;;;;;35.50;24.00;;;-1.40;99.90;;;;;;5051323;28;21120;-69
2023/02/08 03:09:41;;;;;;;25.50;23.00;;;-1.40;99.90;;;;;;5057694;28;20486;-69
2023/02/08 03:12:22;;;;;;;26.43;23.77;;;-1.40;99.90;;;;;;5054048;28;20984;-69
2023/02/08 03:14:58;;;;;;;25.53;23.13;;;-1.40;99.90;;;;;;5048568;28;20538;-69
2023/02/08 03:17:39;;;;;;;26.77;23.87;;;-1.40;99.90;;;;;;5050944;28;20896;-69
2023/02/08 03:20:12;;;;;;;25.43;22.80;;;-1.40;99.90;;;;;;5052319;28;20990;-69
2023/02/08 03:22:45;;;;;;;25.10;22.50;;;-1.50;99.90;;;;;;5051494;28;20462;-69
2023/02/08 03:25:17;;;;;;;25.20;22.23;;;-1.50;99.90;;;;;;5055945;28;20476;-69
2023/02/08 03:27:54;;;;;;;25.97;23.37;;;-1.50;99.90;;;;;;5051829;28;21154;-69
2023/02/08 03:30:27;;;;;;;26.63;23.70;;;-1.50;99.90;;;;;;5054386;28;20497;-69
2023/02/08 03:32:59;;;;;;;25.73;23.13;;;-1.50;99.90;;;;;;5059824;28;20496;-69
2023/02/08 03:35:31;;;;;;;29.63;24.07;;;-1.60;99.90;;;;;;5053189;28;20466;-69
2023/02/08 03:38:01;;;;;;;25.43;22.77;;;-1.60;99.90;;;;;;5055785;28;20498;-70
2023/02/08 03:40:31;;;;;;;30.17;22.10;;;-1.70;99.90;;;;;;5054635;28;20466;-69
2023/02/08 03:43:01;;;;;;;25.50;23.00;;;-1.70;99.90;;;;;;5050824;28;20533;-69
2023/02/08 03:45:32;;;;;;;28.00;23.13;;;-1.70;99.90;;;;;;5054185;28;20473;-69
2023/02/08 03:48:03;;;;;;;24.73;22.33;;;-1.80;99.90;;;;;;5051022;28;20474;-69
2023/02/08 03:50:36;;;;;;;25.97;22.77;;;-1.80;99.90;;;;;;5056594;28;20541;-69
2023/02/08 03:53:05;;;;;;;27.10;22.87;;;-1.80;99.90;;;;;;5054262;28;20945;-69
2023/02/08 03:55:35;;;;;;;27.73;24.70;;;-1.80;99.90;;;;;;5058732;28;20620;-69
2023/02/08 03:58:08;;;;;;;26.70;23.87;;;-1.80;99.90;;;;;;5053345;28;20464;-69
2023/02/08 04:00:40;;;;;;;26.50;23.60;;;-1.80;99.90;;;;;;5052697;28;20485;-69
2023/02/08 04:03:13;;;;;;;25.07;22.13;;;-1.80;99.90;;;;;;5054181;28;20456;-68
2023/02/08 04:05:41;;;;;;;24.93;22.40;;;-1.70;99.90;;;;;;5052993;28;20497;-69
2023/02/08 04:08:08;;;;;;;33.03;22.50;;;-1.80;99.90;;;;;;5064048;28;20457;-69
2023/02/08 04:10:35;;;;;;;24.47;22.10;;;-1.70;99.90;;;;;;5053711;28;20491;-69
2023/02/08 04:13:03;;;;;;;23.93;21.70;;;-1.80;99.90;;;;;;5060178;28;20608;-69
2023/02/08 04:15:29;;;;;;;33.93;22.20;;;-1.90;99.90;;;;;;5052733;28;20465;-69
2023/02/08 04:17:56;;;;;;;25.03;22.50;;;-1.90;99.90;;;;;;5055360;28;20478;-70
2023/02/08 04:20:23;;;;;;;25.17;22.27;;;-2.00;99.90;;;;;;5058990;28;20467;-69
2023/02/08 04:23:06;;;;;;;29.53;23.47;;;-2.00;99.90;;;;;;5058026;28;20904;-69
2023/02/08 04:25:32;;;;;;;27.30;24.60;;;-1.90;99.90;;;;;;5054238;28;20968;-69
2023/02/08 04:28:00;;;;;;;26.90;21.67;;;-1.80;99.90;;;;;;5056896;28;20830;-69
2023/02/08 04:30:26;;;;;;;31.47;22.10;;;-1.70;99.90;;;;;;5059467;28;21000;-70
2023/02/08 04:32:53;;;;;;;24.63;22.17;;;-1.70;99.90;;;;;;5054930;28;20467;-69
2023/02/08 04:35:20;;;;;;;23.97;21.70;;;-1.80;99.90;;;;;;5063195;28;20477;-70
2023/02/08 04:37:47;;;;;;;25.77;23.30;;;-1.80;99.90;;;;;;5057350;28;20469;-69
2023/02/08 04:40:15;;;;;;;24.40;21.93;;;-1.80;99.90;;;;;;5056299;28;21202;-70
2023/02/08 04:42:41;;;;;;;25.60;22.87;;;-1.80;99.90;;;;;;5048314;28;20896;-70
2023/02/08 04:45:09;;;;;;;34.23;23.80;;;-1.80;99.90;;;;;;5054228;28;21766;-70
2023/02/08 04:47:36;;;;;;;25.20;22.77;;;-1.60;99.90;;;;;;5058032;28;20569;-70
2023/02/08 04:50:04;;;;;;;24.63;22.10;;;-1.70;99.90;;;;;;5057703;28;20500;-70
2023/02/08 04:52:31;;;;;;;29.80;22.17;;;-1.60;99.90;;;;;;5056887;28;20458;-70
2023/02/08 04:54:57;;;;;;;24.97;22.27;;;-1.60;99.90;;;;;;5058067;28;20462;-70
2023/02/08 04:57:26;;;;;;;29.47;23.50;;;-1.60;99.90;;;;;;5058397;28;20471;-70
2023/02/08 04:59:53;;;;;;;24.43;22.03;;;-1.70;99.90;;;;;;5060555;28;20552;-71
2023/02/08 05:02:19;;;;;;;28.20;23.33;;;-1.60;99.90;;;;;;5059475;28;20506;-70
2023/02/08 05:04:46;;;;;;;27.87;21.37;;;-1.60;99.90;;;;;;5057580;28;20466;-70
2023/02/08 05:07:13;;;;;;;24.93;22.20;;;-1.50;99.90;;;;;;5057641;28;20465;-70
2023/02/08 05:09:40;;;;;;;25.30;22.80;;;-1.60;99.90;;;;;;5056290;28;20530;-70
2023/02/08 05:12:07;;;;;;;27.33;23.13;;;-1.50;99.90;;;;;;5062832;28;21159;-70
2023/02/08 05:14:35;;;;;;;24.50;21.70;;;-1.50;99.90;;;;;;5056744;28;20464;-70
2023/02/08 05:17:02;;;;;;;29.33;21.63;;;-1.40;99.90;;;;;;5048392;28;20619;-70
2023/02/08 05:19:30;;;;;;;25.20;21.33;;;-1.40;99.90;;;;;;5050355;28;20852;-70
2023/02/08 05:21:56;;;;;;;25.40;23.00;;;-1.40;99.90;;;;;;5059340;28;20490;-71
2023/02/08 05:24:23;;;;;;;24.73;22.43;;;-1.50;99.90;;;;;;5053225;28;20470;-70
2023/02/08 05:26:50;;;;;;;25.97;23.27;;;-1.60;99.90;;;;;;5058908;28;20467;-70
2023/02/08 05:29:17;;;;;;;26.03;23.27;;;-1.70;99.90;;;;;;5051186;28;20471;-70
2023/02/08 05:31:46;;;;;;;24.73;22.50;;;-1.60;99.90;;;;;;5050092;28;20471;-70
2023/02/08 05:34:13;;;;;;;24.93;22.53;;;-1.70;99.90;;;;;;5055936;28;20462;-70
2023/02/08 05:36:40;;;;;;;32.43;22.33;;;-1.70;99.90;;;;;;5055507;28;20463;-70
2023/02/08 05:39:07;;;;;;;29.83;25.90;;;-1.80;99.90;;;;;;5055098;28;20456;-70
2023/02/08 05:41:34;;;;;;;25.10;22.80;;;-1.80;99.90;;;;;;5049158;28;21011;-69
2023/02/08 05:44:03;;;;;;;25.10;22.60;;;-1.90;99.90;;;;;;5052745;28;20466;-69
2023/02/08 05:46:30;;;;;;;23.50;21.10;;;-1.90;99.90;;;;;;5059314;28;20861;-69
2023/02/08 05:48:58;;;;;;;26.17;23.63;;;-1.80;99.90;;;;;;5059865;28;20550;-69
2023/02/08 05:51:25;;;;;;;26.83;23.97;;;-1.90;99.90;;;;;;5057700;28;20880;-68
2023/02/08 05:53:52;;;;;;;25.77;23.30;;;-2.00;99.90;;;;;;5051429;28;20523;-68
2023/02/08 05:56:19;;;;;;;26.30;23.13;;;-2.00;99.90;;;;;;5050309;28;20468;-69
2023/02/08 05:58:46;;;;;;;25.80;23.50;;;-2.00;99.90;;;;;;5053859;28;20467;-68
2023/02/08 06:01:14;;;;;;;25.17;22.87;;;-2.10;99.90;;;;;;5050110;28;20573;-69
2023/02/08 06:03:41;;;;;;;26.17;23.40;;;-2.20;99.90;;;;;;5058698;28;20955;-69
2023/02/08 06:06:10;;;;;;;25.73;23.23;;;-2.20;99.90;;;;;;5055101;28;20469;-68
2023/02/08 06:08:38;;;;;;;27.17;24.00;;;-2.20;99.90;;;;;;5052124;28;20465;-69
2023/02/08 06:11:06;;;;;;;26.47;23.27;;;-2.10;99.90;;;;;;5050833;28;21035;-69
2023/02/08 06:13:33;;;;;;;32.60;24.47;;;-2.10;99.90;;;;;;5053034;28;20510;-69
2023/02/08 06:16:00;;;;;;;26.60;23.80;;;-2.10;99.90;;;;;;5051454;28;20550;-69
2023/02/08 06:18:27;;;;;;;24.63;22.10;;;-2.00;99.90;;;;;;5056591;28;20468;-69
2023/02/08 06:20:55;;;;;;;31.63;23.43;;;-1.90;99.90;;;;;;5052502;28;20891;-69
2023/02/08 06:23:24;;;;;;;26.47;23.80;;;-1.80;99.90;;;;;;5053799;28;20548;-69
2023/02/08 06:25:51;;;;;;;24.33;22.20;;;-1.80;99.90;;;;;;5049951;28;21006;-69
2023/02/08 06:28:18;;;;;;;26.70;23.80;;;-1.90;99.90;;;;;;5051380;28;20463;-69
2023/02/08 06:30:45;;;;;;;25.47;22.87;;;-2.10;99.90;;;;;;5054128;28;20477;-69
2023/02/08 06:33:12;;;;;;;25.87;23.30;;;-2.10;99.90;;;;;;5047512;28;20508;-69
2023/02/08 06:35:39;;;;;;;31.10;23.10;;;-2.20;99.90;;;;;;5030691;28;20553;-69
2023/02/08 06:38:06;;;;;;;25.90;23.40;;;-2.20;99.90;;;;;;5045388;28;21349;-69
2023/02/08 06:40:34;;;;;;;26.10;23.43;;;-2.20;99.90;;;;;;5053779;28;20470;-69
2023/02/08 06:43:01;;;;;;;23.57;21.03;;;-2.30;99.90;;;;;;5052401;28;21316;-70
2023/02/08 06:45:28;;;;;;;24.00;21.60;;;-2.30;99.90;;;;;;5057379;28;20965;-69
2023/02/08 06:47:55;;;;;;;25.10;22.40;;;-2.30;99.90;;;;;;5055810;28;20463;-69
2023/02/08 06:50:22;;;;;;;26.77;23.93;;;-2.30;99.90;;;;;;5057135;28;20506;-69
2023/02/08 06:52:49;;;;;;;24.10;21.73;;;-2.40;99.90;;;;;;5053144;28;20462;-69
2023/02/08 06:55:16;;;;;;;24.10;21.80;;;-2.40;99.90;;;;;;5058124;28;20477;-69
2023/02/08 06:57:44;;;;;;;31.13;22.20;;;-2.40;99.90;;;;;;5053841;28;22401;-69
2023/02/08 07:00:12;;;;;;;26.07;23.57;;;-2.30;99.90;;;;;;5061946;28;20508;-69
2023/02/08 07:02:39;;;;;;;25.17;22.17;;;-2.20;99.90;;;;;;5060803;28;20479;-69
2023/02/08 07:05:07;;;;;;;28.23;21.80;;;-2.20;99.90;;;;;;5057200;28;20468;-69
2023/02/08 07:07:34;;;;;;;27.40;22.40;;;-2.20;99.90;;;;;;5058780;28;20489;-69
2023/02/08 07:10:01;;;;;;;27.37;23.70;;;-2.20;99.90;;;;;;5059169;28;20491;-69
2023/02/08 07:12:28;;;;;;;26.07;23.27;;;-2.20;99.90;;;;;;5058281;28;20530;-69
2023/02/08 07:14:56;;;;;;;25.37;23.00;;;-2.10;99.90;;;;;;5048966;28;20488;-69
2023/02/08 07:17:23;;;;;;;27.17;24.13;;;-2.00;99.90;;;;;;5058522;28;20866;-69
2023/02/08 07:19:50;;;;;;;26.20;23.80;;;-2.00;99.90;;;;;;5058372;28;20556;-69
2023/02/08 07:22:17;;;;;;;25.43;23.13;;;-2.00;99.90;;;;;;5058759;28;20468;-69
2023/02/08 07:24:44;;;;;;;31.80;22.90;;;-2.00;99.90;;;;;;5054142;28;20513;-69
2023/02/08 07:27:12;;;;;;;34.00;22.73;;;-1.90;99.90;;;;;;5058681;28;20489;-69
2023/02/08 07:29:40;;;;;;;24.97;22.30;;;-1.80;99.90;;;;;;5050099;28;20479;-69
2023/02/08 07:32:10;;;;;;;26.50;23.90;;;-1.80;99.90;;;;;;5060248;28;20854;-69
2023/02/08 07:34:39;;;;;;;29.10;25.00;;;-1.80;99.90;;;;;;5049933;28;20476;-69
2023/02/08 07:37:06;;;;;;;26.70;24.07;;;-1.70;99.90;;;;;;5053948;28;20467;-69
2023/02/08 07:39:33;;;;;;;28.30;25.20;;;-1.60;99.90;;;;;;5057426;28;20463;-69
2023/02/08 07:41:59;;;;;;;27.33;24.80;;;-1.60;99.90;;;;;;5057479;28;20492;-69
2023/02/08 07:44:26;;;;;;;26.80;24.20;;;-1.60;99.90;;;;;;5048525;28;20464;-69
2023/02/08 07:46:53;;;;;;;29.53;24.83;;;-1.50;99.90;;;;;;5053860;28;20469;-69
2023/02/08 07:49:22;;;;;;;26.97;24.17;;;-1.40;99.90;;;;;;5058291;28;20463;-71
2023/02/08 07:51:49;;;;;;;27.27;24.00;;;-1.40;99.90;;;;;;5057943;28;20490;-68
2023/02/08 07:54:15;;;;;;;25.13;22.77;;;-1.40;99.90;;;;;;5063030;28;20460;-69
2023/02/08 07:56:43;;;;;;;28.37;24.63;;;-1.40;99.90;;;;;;5064547;28;20507;-69
2023/02/08 07:59:10;;;;;;;27.13;24.30;;;-1.30;99.90;;;;;;5058654;28;20994;-69
2023/02/08 08:01:37;;;;;;;27.57;23.93;;;-1.30;99.90;;;;;;5055641;28;20730;-69
2023/02/08 08:04:04;;;;;;;30.37;23.27;;;-1.30;99.90;;;;;;5060384;28;20558;-69
2023/02/08 08:06:32;;;;;;;31.50;24.60;;;-1.20;99.90;;;;;;5058916;28;20474;-69
2023/02/08 08:09:00;;;;;;;29.40;25.50;;;-1.20;99.90;;;;;;5058615;28;20477;-69
2023/02/08 08:11:27;;;;;;;30.53;25.80;;;-1.10;99.90;;;;;;5067618;28;20493;-69
2023/02/08 08:13:53;;;;;;;35.67;24.50;;;-1.10;99.90;;;;;;5060303;28;20457;-69
2023/02/08 08:16:21;;;;;;;29.80;25.70;;;-1.00;99.90;;;;;;5053067;28;20466;-69
2023/02/08 08:18:49;;;;;;;25.97;23.50;;;-1.00;99.90;;;;;;5058792;28;20505;-69
2023/02/08 08:21:16;;;;;;;35.57;23.70;;;-0.90;99.90;;;;;;5061333;28;20498;-69
2023/02/08 08:23:44;;;;;;;31.70;24.00;;;-0.80;99.90;;;;;;5066746;28;20458;-69
2023/02/08 08:26:13;;;;;;;26.87;23.83;;;-0.80;99.90;;;;;;5057540;28;20465;-69
2023/02/08 08:28:41;;;;;;;26.20;23.20;;;-0.70;99.90;;;;;;5057659;28;20836;-69
2023/02/08 08:31:13;;;;;;;28.97;25.90;;;-0.60;99.90;;;;;;5055723;28;20948;-69
2023/02/08 08:33:40;;;;;;;27.00;24.00;;;-0.60;99.90;;;;;;5057774;28;20471;-69
2023/02/08 08:36:07;;;;;;;26.07;23.13;;;-0.50;99.90;;;;;;5060203;28;21162;-69
2023/02/08 08:38:35;;;;;;;28.10;25.40;;;-0.40;99.90;;;;;;5064830;28;20531;-69
2023/02/08 08:41:07;;;;;;;34.60;24.47;;;-0.30;99.90;;;;;;5060749;28;20501;-69
2023/02/08 08:43:34;;;;;;;25.60;23.20;;;-0.20;99.90;;;;;;5057319;28;20890;-69
2023/02/08 08:46:00;;;;;;;26.20;23.87;;;-0.10;99.90;;;;;;5055378;28;20452;-69
2023/02/08 08:48:28;;;;;;;27.67;24.80;;;0.00;99.90;;;;;;5055340;28;20475;-69
2023/02/08 08:50:55;;;;;;;26.73;24.00;;;0.10;99.90;;;;;;5060570;28;20944;-70
2023/02/08 08:53:22;;;;;;;25.30;22.87;;;0.10;99.90;;;;;;5062560;28;20466;-70
2023/02/08 08:55:50;;;;;;;26.27;23.90;;;0.20;99.90;;;;;;5055317;28;20466;-69
2023/02/08 08:58:18;;;;;;;30.87;25.40;;;0.30;99.90;;;;;;5057351;28;20471;-70
2023/02/08 09:00:45;;;;;;;38.63;25.17;;;0.40;99.90;;;;;;5058999;28;20482;-69
2023/02/08 09:03:12;;;;;;;27.10;24.03;;;0.40;99.90;;;;;;5051916;28;20467;-70
2023/02/08 09:05:39;;;;;;;26.60;24.00;;;0.50;99.90;;;;;;5047718;28;20528;-70
2023/02/08 09:08:05;;;;;;;27.70;24.87;;;0.50;99.90;;;;;;5060844;28;20459;-70
2023/02/08 09:10:33;;;;;;;27.97;25.17;;;0.60;99.90;;;;;;5061343;28;20458;-70
2023/02/08 09:13:01;;;;;;;32.03;25.10;;;0.70;99.90;;;;;;5059967;28;20463;-70
2023/02/08 09:15:29;;;;;;;29.27;26.40;;;0.80;99.90;;;;;;5052541;28;20476;-70
2023/02/08 09:17:56;;;;;;;30.33;24.07;;;0.80;99.90;;;;;;5052214;28;20463;-70
2023/02/08 09:20:22;;;;;;;28.43;25.77;;;0.90;99.90;;;;;;5058244;28;20463;-70
2023/02/08 09:22:52;;;;;;;30.20;26.63;;;0.90;99.90;;;;;;5059459;28;20970;-70
2023/02/08 09:25:18;;;;;;;28.33;25.57;;;1.00;99.90;;;;;;5051192;28;20467;-70
2023/02/08 09:27:45;;;;;;;31.80;26.20;;;1.00;99.90;;;;;;5053388;28;20471;-70
2023/02/08 09:30:12;;;;;;;28.83;25.60;;;1.00;99.90;;;;;;5055198;28;20479;-70
2023/02/08 09:32:41;;;;;;;29.40;26.60;;;1.10;99.90;;;;;;5061149;28;21003;-70
2023/02/08 09:35:08;;;;;;;28.07;25.27;;;1.20;99.90;;;;;;5050628;28;20479;-71
2023/02/08 09:37:35;;;;;;;30.83;27.60;;;1.30;99.90;;;;;;5048152;28;20464;-71
2023/02/08 09:40:01;;;;;;;29.50;26.30;;;1.30;99.90;;;;;;5054416;28;20560;-70
2023/02/08 09:42:35;;;;;;;28.90;25.87;;;1.30;99.90;;;;;;5057680;28;21015;-71
2023/02/08 09:45:20;;;;;;;29.23;26.27;;;1.40;99.90;;;;;;5053238;28;20467;-71
2023/02/08 09:47:54;;;;;;;29.80;26.70;;;1.50;99.90;;;;;;5051600;28;20744;-71
2023/02/08 09:50:27;;;;;;;29.10;26.17;;;1.50;99.90;;;;;;5052546;28;20590;-71
2023/02/08 09:53:00;;;;;;;34.73;25.13;;;1.70;99.90;;;;;;5053757;28;20483;-71
2023/02/08 09:55:32;;;;;;;33.30;25.40;;;1.70;99.90;;;;;;5056282;28;20463;-71
2023/02/08 09:58:03;;;;;;;36.30;27.53;;;1.80;99.90;;;;;;5055769;28;20478;-71
2023/02/08 10:00:34;;;;;;;30.47;27.20;;;1.80;99.90;;;;;;5056171;28;20850;-70
2023/02/08 10:03:04;;;;;;;36.70;25.90;;;1.90;99.90;;;;;;5052217;28;20870;-70
2023/02/08 10:05:31;;;;;;;30.63;25.23;;;2.00;99.90;;;;;;5058547;28;20467;-71
2023/02/08 10:08:00;;;;;;;30.10;26.23;;;2.10;99.90;;;;;;5056285;28;20459;-71
2023/02/08 10:10:41;;;;;;;35.40;26.43;;;2.20;99.90;;;;;;5054209;28;20584;-70
2023/02/08 10:13:19;;;;;;;26.77;24.27;;;2.30;99.90;;;;;;5051253;28;20497;-71
2023/02/08 10:15:51;;;;;;;26.30;23.67;;;2.40;99.90;;;;;;5046144;28;20618;-70
2023/02/08 10:18:29;;;;;;;25.60;23.00;;;2.50;99.90;;;;;;5050049;28;20771;-70
2023/02/08 10:21:16;;;;;;;28.20;25.23;;;2.70;99.90;;;;;;5051836;28;20467;-70
2023/02/08 10:23:54;;;;;;;27.10;24.57;;;2.80;99.90;;;;;;5041683;28;20873;-69
2023/02/08 10:26:30;;;;;;;27.97;25.47;;;2.90;99.90;;;;;;5055704;28;20468;-69
2023/02/08 10:29:07;;;;;;;26.80;23.97;;;3.00;99.90;;;;;;5057197;28;20892;-70
2023/02/08 10:31:55;;;;;;;30.87;25.77;;;3.10;99.90;;;;;;5049109;28;20544;-69
2023/02/08 10:34:40;;;;;;;28.40;25.13;;;3.20;99.90;;;;;;5057821;28;20962;-69
2023/02/08 10:37:13;;;;;;;27.03;24.60;;;3.40;99.90;;;;;;5055053;28;20973;-69
2023/02/08 10:39:40;;;;;;;26.07;23.70;;;3.50;99.90;;;;;;5060664;28;20457;-69
2023/02/08 10:42:13;;;;;;;28.70;25.17;;;3.60;99.90;;;;;;5055230;28;20514;-69
2023/02/08 10:44:51;;;;;;;27.63;24.70;;;3.70;99.90;;;;;;5052378;28;20468;-69
2023/02/08 10:47:30;;;;;;;28.20;25.47;;;3.80;99.90;;;;;;5052446;28;20459;-69
2023/02/08 10:50:04;;;;;;;26.40;24.00;;;3.80;99.90;;;;;;5051788;28;20457;-69
2023/02/08 10:52:31;;;;;;;26.30;23.70;;;4.10;99.90;;;;;;5056579;28;20524;-69
2023/02/08 10:54:58;;;;;;;28.03;25.10;;;4.80;99.90;;;;;;5055634;28;20458;-68
2023/02/08 10:57:28;;;;;;;25.70;23.73;;;5.80;99.90;;;;;;5051002;28;20558;-69
2023/02/08 10:59:59;;;;;;;26.17;23.80;;;6.80;99.90;;;;;;5055164;28;20828;-69
2023/02/08 11:02:28;;;;;;;25.30;23.10;;;7.80;99.90;;;;;;5056466;28;20487;-69
2023/02/08 11:05:02;;;;;;;25.97;23.77;;;8.60;99.90;;;;;;5051805;28;20460;-69
2023/02/08 11:07:29;;;;;;;26.57;24.03;;;9.30;98.70;;;;;;5055859;28;20964;-70
2023/02/08 11:10:21;;;;;;;26.70;24.13;;;9.80;95.00;;;;;;5046004;28;20472;-71
2023/02/08 11:12:56;;;;;;;26.27;24.10;;;9.90;91.50;;;;;;5051154;28;20495;-69
2023/02/08 11:15:26;;;;;;;25.87;23.57;;;9.60;90.00;;;;;;5046982;28;20470;-69
2023/02/08 11:17:59;;;;;;;26.37;23.80;;;10.10;90.10;;;;;;5052565;28;20468;-70
2023/02/08 11:20:33;;;;;;;26.77;24.43;;;10.20;83.70;;;;;;5048686;28;20490;-71
2023/02/08 11:23:00;;;;;;;27.13;24.60;;;10.50;82.70;;;;;;5045170;28;20501;-70
2023/02/08 11:25:37;;;;;;;25.40;23.57;;;10.60;79.30;;;;;;5048203;28;20464;-72
2023/02/08 11:28:20;;;;;;;27.37;24.57;;;11.20;79.20;;;;;;5051169;28;20850;-70
2023/02/08 11:30:55;;;;;;;25.63;23.43;;;10.80;73.30;;;;;;5046128;28;20467;-71
2023/02/08 11:33:24;;;;;;;24.93;22.80;;;11.60;78.60;;;;;;5051859;28;20491;-71
2023/02/08 11:36:13;;;;;;;26.43;23.87;;;12.20;76.10;;;;;;5049188;28;20541;-72
2023/02/08 11:38:42;;;;;;;27.40;24.80;;;12.40;70.00;;;;;;5038926;28;21717;-71
2023/02/08 11:41:18;;;;;;;26.20;23.93;;;12.50;67.80;;;;;;5051701;28;20498;-71
2023/02/08 11:43:58;;;;;;;26.30;23.73;;;12.20;64.30;;;;;;5053893;28;20479;-70
2023/02/08 11:46:27;;;;;;;25.73;23.47;;;12.20;64.20;;;;;;5048633;28;20470;-70
2023/02/08 11:48:54;;;;;;;25.13;22.80;;;12.10;59.10;;;;;;5046440;28;20463;-71
2023/02/08 11:51:29;;;;;;;26.57;24.37;;;12.60;59.80;;;;;;5052423;28;20559;-71
2023/02/08 11:53:56;;;;;;;23.83;21.93;;;12.50;57.90;;;;;;5051897;28;20474;-73
2023/02/08 11:56:27;;;;;;;22.90;21.10;;;12.30;57.20;;;;;;5055606;28;20983;-71
2023/02/08 11:58:58;;;;;;;24.70;22.60;;;12.10;55.50;;;;;;5050692;28;20477;-71
2023/02/08 12:01:28;;;;;;;24.10;21.67;;;11.80;56.70;;;;;;5053903;28;20482;-73
2023/02/08 12:03:57;;;;;;;24.50;22.47;;;12.20;55.30;;;;;;5055581;28;20473;-71
2023/02/08 12:07:07;;;;;;;24.10;22.20;;;12.40;56.10;;;;;;5054362;28;20827;-71
2023/02/08 12:10:02;;;;;;;24.07;22.33;;;12.30;55.20;;;;;;5061379;28;20482;-72
2023/02/08 12:12:37;;;;;;;23.73;21.60;;;12.90;55.10;;;;;;5054724;28;20488;-71
2023/02/08 12:15:11;;;;;;;24.77;22.90;;;13.20;54.60;;;;;;5058862;28;20467;-72
2023/02/08 12:17:56;;;;;;;23.40;21.70;;;13.50;54.00;;;;;;5052933;28;20562;-73
2023/02/08 12:20:36;;;;;;;22.77;21.07;;;13.60;52.80;;;;;;5050396;28;20467;-72
2023/02/08 12:23:29;;;;;;;22.40;20.47;;;13.60;51.20;;;;;;5053335;28;20467;-71
2023/02/08 12:26:08;;;;;;;24.40;22.33;;;13.60;51.00;;;;;;5051310;28;20463;-72
2023/02/08 12:28:47;;;;;;;22.90;21.17;;;13.50;50.80;;;;;;5046063;28;20455;-70
2023/02/08 12:31:23;;;;;;;23.50;21.60;;;13.70;49.30;;;;;;5047808;28;20467;-70
2023/02/08 12:34:02;;;;;;;23.17;21.47;;;13.90;48.40;;;;;;5052965;28;20447;-71
2023/02/08 12:40:48;;;;;;;22.00;20.43;;;13.50;48.90;;;;;;5050485;28;20829;-71
2023/02/08 12:42:45;;;;;;;23.30;21.40;;;14.40;48.70;;;;;;5052829;28;21003;-71
2023/02/08 12:45:37;;;;;;;23.03;21.33;;;14.40;48.50;;;;;;5051409;28;20960;-71
2023/02/08 12:48:22;;;;;;;24.33;21.90;;;14.30;46.70;;;;;;5060351;28;20455;-68